Terminal Aerodrome Forecast
Issued by NWS Blacksburg, VA

Current Version | Previous Version | Text Only | Print | Product List | Glossary On
Versions: 1 2 3 4 5 6 7 8 9 10 11 12 13 14 15 16 17 18 19 20 21 22 23 24 25 26 27 28 29 30 31 32 33 34 35 36 37 38
000
FTUS41 KRNK 290520
TAFBLF
TAF
KBLF 290520Z 2906/3006 28004KT 1SM -RA BR VV002
      TEMPO 2906/2909 1/2SM RA FG
     FM290900 VRB03KT 1/4SM RA FG OVC001
     FM291700 02004KT 2SM -DZ BR SCT002 OVC006
     FM300000 08003KT 4SM -RA BR OVC004=

USA.gov is the U.S. government's official web portal to all federal, state and local government web resources and services.